createdAt,value
2023-05-10T00:01:55.903Z,7.53
2023-05-10T00:04:28.494Z,7.52
2023-05-10T00:06:57.377Z,7.52
2023-05-10T00:09:25.954Z,7.49
2023-05-10T00:11:54.670Z,7.48
2023-05-10T00:14:23.292Z,7.46
2023-05-10T00:16:51.755Z,7.43
2023-05-10T00:19:20.120Z,7.40
2023-05-10T00:21:48.485Z,7.40
2023-05-10T00:24:17.253Z,7.41
2023-05-10T00:26:46.031Z,7.38
2023-05-10T00:29:14.997Z,7.37
2023-05-10T00:31:43.776Z,7.37
2023-05-10T00:34:12.644Z,7.35
2023-05-10T00:36:41.049Z,7.32
2023-05-10T00:39:09.950Z,7.29
2023-05-10T00:41:38.818Z,7.29
2023-05-10T00:44:07.357Z,7.29
2023-05-10T00:46:37.524Z,7.27
2023-05-10T00:49:06.031Z,7.29
2023-05-10T00:51:35.051Z,7.29
2023-05-10T00:54:04.105Z,7.25
2023-05-10T00:56:33.065Z,7.21
2023-05-10T00:59:02.440Z,7.19
2023-05-10T01:01:32.376Z,7.15
2023-05-10T01:04:01.266Z,7.11
2023-05-10T01:06:29.858Z,7.08
2023-05-10T01:08:58.357Z,7.07
2023-05-10T01:11:27.069Z,7.08
2023-05-10T01:13:58.714Z,7.05
2023-05-10T01:16:29.342Z,6.99
2023-05-10T01:18:57.869Z,6.95
2023-05-10T01:21:39.831Z,6.91
2023-05-10T01:24:20.769Z,6.89
2023-05-10T01:27:15.394Z,6.88
2023-05-10T01:30:15.372Z,6.82
2023-05-10T01:32:49.300Z,6.80
2023-05-10T01:35:34.037Z,6.81
2023-05-10T01:38:27.051Z,6.83
2023-05-10T01:41:22.566Z,6.83
2023-05-10T01:44:32.714Z,6.84
2023-05-10T01:47:11.059Z,6.88
2023-05-10T01:49:51.015Z,6.87
2023-05-10T01:52:23.907Z,6.84
2023-05-10T01:55:00.718Z,6.82
2023-05-10T01:57:35.146Z,6.77
2023-05-10T02:00:06.154Z,6.77
2023-05-10T02:02:39.137Z,6.76
2023-05-10T02:05:08.657Z,6.71
2023-05-10T02:07:38.204Z,6.66
2023-05-10T02:10:09.237Z,6.61
2023-05-10T02:12:43.804Z,6.56
2023-05-10T02:15:16.881Z,6.50
2023-05-10T02:17:48.047Z,6.41
2023-05-10T02:20:19.968Z,6.36
2023-05-10T02:22:51.982Z,6.32
2023-05-10T02:25:22.830Z,6.26
2023-05-10T02:27:53.352Z,6.20
2023-05-10T02:30:24.325Z,6.15
2023-05-10T02:32:53.993Z,6.08
2023-05-10T02:35:24.455Z,6.02
2023-05-10T02:37:54.568Z,5.96
2023-05-10T02:40:27.984Z,5.91
2023-05-10T02:43:00.148Z,5.87
2023-05-10T02:45:32.632Z,5.82
2023-05-10T02:48:01.976Z,5.79
2023-05-10T02:50:33.809Z,5.77
2023-05-10T02:53:08.098Z,5.74
2023-05-10T02:55:40.281Z,5.71
2023-05-10T02:58:08.685Z,5.71
2023-05-10T03:00:37.669Z,5.70
2023-05-10T03:03:06.537Z,5.69
2023-05-10T03:05:35.601Z,5.66
2023-05-10T03:08:05.531Z,5.64
2023-05-10T03:10:39.632Z,5.63
2023-05-10T03:13:36.835Z,5.62
2023-05-10T03:16:23.579Z,5.62
2023-05-10T03:19:10.763Z,5.60
2023-05-10T03:21:43.775Z,5.55
2023-05-10T03:24:16.732Z,5.50
2023-05-10T03:26:46.934Z,5.50
2023-05-10T03:29:17.233Z,5.50
2023-05-10T03:31:46.805Z,5.51
2023-05-10T03:34:15.125Z,5.51
2023-05-10T03:36:43.571Z,5.52
2023-05-10T03:39:12.033Z,5.53
2023-05-10T03:41:40.680Z,5.56
2023-05-10T03:44:09.421Z,5.59
2023-05-10T03:46:38.511Z,5.61
2023-05-10T03:49:07.032Z,5.63
2023-05-10T03:51:35.480Z,5.66
2023-05-10T03:54:04.118Z,5.69
2023-05-10T03:56:32.777Z,5.72
2023-05-10T03:59:02.076Z,5.76
2023-05-10T04:01:30.943Z,5.82
2023-05-10T04:03:59.328Z,5.89
2023-05-10T04:06:27.828Z,5.95
2023-05-10T04:08:56.803Z,6.03
2023-05-10T04:11:26.205Z,6.11
2023-05-10T04:13:55.202Z,6.19
2023-05-10T04:16:24.001Z,6.26
2023-05-10T04:18:52.449Z,6.34
2023-05-10T04:21:20.866Z,6.41
2023-05-10T04:23:49.208Z,6.49
2023-05-10T04:26:17.570Z,6.57
2023-05-10T04:28:46.399Z,6.66
2023-05-10T04:31:14.915Z,6.74
2023-05-10T04:33:43.319Z,6.82
2023-05-10T04:36:12.103Z,6.89
2023-05-10T04:38:40.558Z,6.97
2023-05-10T04:41:10.753Z,7.06
2023-05-10T04:43:39.929Z,7.12
2023-05-10T04:46:08.890Z,7.22
2023-05-10T04:48:37.288Z,7.30
2023-05-10T04:51:06.117Z,7.39
2023-05-10T04:53:34.658Z,7.49
2023-05-10T04:56:03.027Z,7.62
2023-05-10T04:58:31.924Z,7.75
2023-05-10T05:01:07.537Z,7.86
2023-05-10T05:03:36.884Z,8.01
2023-05-10T05:06:06.066Z,8.14
2023-05-10T05:08:34.382Z,8.27
2023-05-10T05:11:02.845Z,8.39
2023-05-10T05:13:31.370Z,8.51
2023-05-10T05:16:02.954Z,8.62
2023-05-10T05:18:31.411Z,8.78
2023-05-10T05:20:59.772Z,8.96
2023-05-10T05:23:28.654Z,9.20
2023-05-10T05:25:57.015Z,9.48
2023-05-10T05:28:25.396Z,9.79
2023-05-10T05:30:54.495Z,10.12
2023-05-10T05:33:23.563Z,10.44
2023-05-10T05:35:52.419Z,10.81
2023-05-10T05:38:20.879Z,11.22
2023-05-10T05:40:49.394Z,11.60
2023-05-10T05:43:17.841Z,11.97
2023-05-10T05:45:46.446Z,12.27
2023-05-10T05:48:14.851Z,12.55
2023-05-10T05:50:43.264Z,12.83
2023-05-10T05:53:11.588Z,13.22
2023-05-10T05:55:39.957Z,13.73
2023-05-10T05:58:08.352Z,14.13
2023-05-10T06:00:36.753Z,14.33
2023-05-10T06:03:05.129Z,14.45
2023-05-10T06:05:33.583Z,14.74
2023-05-10T06:08:02.489Z,15.09
2023-05-10T06:10:31.958Z,15.43
2023-05-10T06:13:00.524Z,15.70
2023-05-10T06:15:29.355Z,15.86
2023-05-10T06:17:57.840Z,16.16
2023-05-10T06:20:26.703Z,16.47
2023-05-10T06:22:55.164Z,16.53
2023-05-10T06:25:23.634Z,16.57
2023-05-10T06:27:58.495Z,16.90
2023-05-10T06:30:30.292Z,17.10
2023-05-10T06:32:59.555Z,17.13
2023-05-10T06:35:28.042Z,17.42
2023-05-10T06:37:57.227Z,17.67
2023-05-10T06:40:31.723Z,17.84
2023-05-10T06:43:00.878Z,18.03
2023-05-10T06:45:29.472Z,18.42
2023-05-10T06:47:57.983Z,18.97
2023-05-10T06:50:27.021Z,19.39
2023-05-10T06:52:56.843Z,19.91
2023-05-10T06:55:25.485Z,20.80
2023-05-10T06:57:54.242Z,21.23
2023-05-10T07:00:22.817Z,21.33
2023-05-10T07:02:52.423Z,21.63
2023-05-10T07:05:21.509Z,21.91
2023-05-10T07:07:50.300Z,22.36
2023-05-10T07:10:19.072Z,22.36
2023-05-10T07:12:47.778Z,22.38
2023-05-10T07:15:17.629Z,22.39
2023-05-10T07:17:47.045Z,22.80
2023-05-10T07:20:15.792Z,23.36
2023-05-10T07:22:44.284Z,23.90
2023-05-10T07:25:12.856Z,24.35
2023-05-10T07:27:41.256Z,24.36
2023-05-10T07:30:10.098Z,24.29
2023-05-10T07:32:38.586Z,24.74
2023-05-10T07:35:08.205Z,25.18
2023-05-10T07:37:37.255Z,24.84
2023-05-10T07:40:07.798Z,24.54
2023-05-10T07:42:36.630Z,24.25
2023-05-10T07:45:05.509Z,24.27
2023-05-10T07:47:33.986Z,24.58
2023-05-10T07:50:02.948Z,25.05
2023-05-10T07:52:31.948Z,24.99
2023-05-10T07:55:00.915Z,24.82
2023-05-10T07:57:30.080Z,25.11
2023-05-10T07:59:58.679Z,25.63
2023-05-10T08:02:27.293Z,26.11
2023-05-10T08:04:57.093Z,26.29
2023-05-10T08:07:26.357Z,26.13
2023-05-10T08:09:55.389Z,26.08
2023-05-10T08:12:24.274Z,25.55
2023-05-10T08:14:53.344Z,25.05
2023-05-10T08:17:22.825Z,24.84
2023-05-10T08:19:53.097Z,25.25
2023-05-10T08:22:21.608Z,25.77
2023-05-10T08:24:50.389Z,25.84
2023-05-10T08:27:18.890Z,25.78
2023-05-10T08:29:50.321Z,25.86
2023-05-10T08:32:19.318Z,26.03
2023-05-10T08:34:47.712Z,26.43
2023-05-10T08:37:16.699Z,26.61
2023-05-10T08:39:49.351Z,26.77
2023-05-10T08:42:23.234Z,26.89
2023-05-10T08:44:53.530Z,26.35
2023-05-10T08:47:22.858Z,26.57
2023-05-10T08:49:52.493Z,26.84
2023-05-10T08:52:23.071Z,26.53
2023-05-10T08:54:51.968Z,26.77
2023-05-10T08:57:21.729Z,27.44
2023-05-10T08:59:50.261Z,28.27
2023-05-10T09:02:20.046Z,28.42
2023-05-10T09:04:50.420Z,28.34
2023-05-10T09:07:21.090Z,28.08
2023-05-10T09:09:50.434Z,28.04
2023-05-10T09:12:18.943Z,28.02
2023-05-10T09:14:48.323Z,27.99
2023-05-10T09:17:17.770Z,27.84
2023-05-10T09:19:46.763Z,27.70
2023-05-10T09:22:16.348Z,27.54
2023-05-10T09:24:46.632Z,27.37
2023-05-10T09:27:15.990Z,27.08
2023-05-10T09:29:44.822Z,27.14
2023-05-10T09:32:13.818Z,26.90
2023-05-10T09:34:43.628Z,26.94
2023-05-10T09:37:12.156Z,27.04
2023-05-10T09:39:42.667Z,27.37
2023-05-10T09:42:11.642Z,28.12
2023-05-10T09:44:42.899Z,28.50
2023-05-10T09:47:11.795Z,28.14
2023-05-10T09:49:40.150Z,27.72
2023-05-10T09:52:09.484Z,27.95
2023-05-10T09:54:37.871Z,28.38
2023-05-10T09:57:06.684Z,28.00
2023-05-10T09:59:36.581Z,28.15
2023-05-10T10:02:05.950Z,28.42
2023-05-10T10:04:41.982Z,28.74
2023-05-10T10:07:11.035Z,28.44
2023-05-10T10:09:40.301Z,28.26
2023-05-10T10:12:08.775Z,28.45
2023-05-10T10:14:37.596Z,28.82
2023-05-10T10:17:08.984Z,29.24
2023-05-10T10:19:38.482Z,29.30
2023-05-10T10:22:07.590Z,29.24
2023-05-10T10:24:36.070Z,29.21
2023-05-10T10:27:27.662Z,29.05
2023-05-10T10:30:10.235Z,29.45
2023-05-10T10:33:13.584Z,29.65
2023-05-10T10:35:49.712Z,29.49
2023-05-10T10:38:18.728Z,29.48
2023-05-10T10:40:49.152Z,29.06
2023-05-10T10:43:30.769Z,28.41
2023-05-10T10:46:19.046Z,28.55
2023-05-10T10:49:11.380Z,28.93
2023-05-10T10:51:40.989Z,29.24
2023-05-10T10:54:11.968Z,29.37
2023-05-10T10:56:41.039Z,29.26
2023-05-10T10:59:10.161Z,29.23
2023-05-10T11:01:45.756Z,29.13
2023-05-10T11:04:14.658Z,29.12
2023-05-10T11:06:43.909Z,29.12
2023-05-10T11:09:14.048Z,29.24
2023-05-10T11:11:59.775Z,29.29
2023-05-10T11:14:28.803Z,29.34
2023-05-10T11:16:57.307Z,29.32
2023-05-10T11:19:29.429Z,28.66
2023-05-10T11:22:06.677Z,28.42
2023-05-10T11:24:35.109Z,28.21
2023-05-10T11:27:04.032Z,28.41
2023-05-10T11:29:32.573Z,28.75
2023-05-10T11:32:01.305Z,28.84
2023-05-10T11:34:34.897Z,29.04
2023-05-10T11:37:03.795Z,29.16
2023-05-10T11:39:34.884Z,29.32
2023-05-10T11:42:03.424Z,29.03
2023-05-10T11:44:33.714Z,28.46
2023-05-10T11:47:03.137Z,28.57
2023-05-10T11:49:32.042Z,28.80
2023-05-10T11:52:08.492Z,28.83
2023-05-10T11:54:37.381Z,28.72
2023-05-10T11:57:06.276Z,28.31
2023-05-10T11:59:34.883Z,28.18
2023-05-10T12:02:04.687Z,28.40
2023-05-10T12:04:34.076Z,28.47
2023-05-10T12:07:02.850Z,28.06
2023-05-10T12:09:42.724Z,27.46
2023-05-10T12:12:18.564Z,27.52
2023-05-10T12:14:52.082Z,27.92
2023-05-10T12:17:20.596Z,27.99
2023-05-10T12:19:49.202Z,27.61
2023-05-10T12:22:22.465Z,27.75
2023-05-10T12:24:51.923Z,27.85
2023-05-10T12:30:07.729Z,27.69
2023-05-10T12:32:43.298Z,27.58
2023-05-10T12:35:12.391Z,27.51
2023-05-10T12:37:41.069Z,27.07
2023-05-10T12:40:12.861Z,26.54
2023-05-10T12:42:41.726Z,26.20
2023-05-10T12:45:10.784Z,25.68
2023-05-10T12:47:42.220Z,24.98
2023-05-10T12:50:12.782Z,24.06
2023-05-10T12:52:41.211Z,23.22
2023-05-10T12:55:10.051Z,22.59
2023-05-10T12:57:38.917Z,22.07
2023-05-10T13:00:08.187Z,21.69
2023-05-10T13:02:36.565Z,21.39
2023-05-10T13:05:05.574Z,21.34
2023-05-10T13:07:34.627Z,22.02
2023-05-10T13:10:03.456Z,23.14
2023-05-10T13:12:32.370Z,23.69
2023-05-10T13:15:00.931Z,24.08
2023-05-10T13:17:29.608Z,24.23
2023-05-10T13:19:58.803Z,24.24
2023-05-10T13:22:39.113Z,24.07
2023-05-10T13:25:09.357Z,23.68
2023-05-10T13:27:39.374Z,23.38
2023-05-10T13:30:12.518Z,22.93
2023-05-10T13:32:41.625Z,22.22
2023-05-10T13:35:10.248Z,21.74
2023-05-10T13:37:39.263Z,21.30
2023-05-10T13:40:13.486Z,20.98
2023-05-10T13:42:42.154Z,20.76
2023-05-10T13:45:13.356Z,20.65
2023-05-10T13:47:42.339Z,20.57
2023-05-10T13:50:11.622Z,20.46
2023-05-10T13:52:40.192Z,20.40
2023-05-10T13:55:09.459Z,20.40
2023-05-10T13:57:38.347Z,20.36
2023-05-10T14:00:07.444Z,20.38
2023-05-10T14:02:36.167Z,20.52
2023-05-10T14:05:05.467Z,20.60
2023-05-10T14:07:33.947Z,20.73
2023-05-10T14:10:02.391Z,20.68
2023-05-10T14:12:31.246Z,20.60
2023-05-10T14:14:59.760Z,20.59
2023-05-10T14:17:28.669Z,20.51
2023-05-10T14:19:57.584Z,20.50
2023-05-10T14:22:26.627Z,20.49
2023-05-10T14:24:55.429Z,20.42
2023-05-10T14:27:24.467Z,20.37
2023-05-10T14:29:54.571Z,20.33
2023-05-10T14:32:22.983Z,20.41
2023-05-10T14:34:51.768Z,20.40
2023-05-10T14:37:20.025Z,20.28
2023-05-10T14:39:48.619Z,20.22
2023-05-10T14:42:17.364Z,20.20
2023-05-10T14:44:45.890Z,20.23
2023-05-10T14:47:14.955Z,20.25
2023-05-10T14:49:43.888Z,20.26
2023-05-10T14:52:13.588Z,20.32
2023-05-10T14:54:42.586Z,20.35
2023-05-10T14:57:11.580Z,20.36
2023-05-10T14:59:39.980Z,20.24
2023-05-10T15:02:09.779Z,20.09
2023-05-10T15:04:39.320Z,19.98
2023-05-10T15:07:07.909Z,20.04
2023-05-10T15:09:36.729Z,20.06
2023-05-10T15:12:05.637Z,20.05
2023-05-10T15:14:34.509Z,20.04
2023-05-10T15:17:03.317Z,20.07
2023-05-10T15:19:34.474Z,20.12
2023-05-10T15:22:03.705Z,20.12
2023-05-10T15:24:32.326Z,20.12
2023-05-10T15:27:01.347Z,20.16
2023-05-10T15:29:31.004Z,20.19
2023-05-10T15:31:59.626Z,20.22
2023-05-10T15:34:29.688Z,20.34
2023-05-10T15:36:58.609Z,20.41
2023-05-10T15:39:27.194Z,20.41
2023-05-10T15:41:56.017Z,20.32
2023-05-10T15:44:25.644Z,20.28
2023-05-10T15:46:54.040Z,20.27
2023-05-10T15:49:22.717Z,20.22
2023-05-10T15:51:51.750Z,20.22
2023-05-10T15:54:21.265Z,20.21
2023-05-10T15:56:50.164Z,20.21
2023-05-10T15:59:19.057Z,20.19
2023-05-10T16:01:48.037Z,20.18
2023-05-10T16:04:16.604Z,20.18
2023-05-10T16:06:45.732Z,20.09
2023-05-10T16:09:14.358Z,20.03
2023-05-10T16:11:44.472Z,19.97
2023-05-10T16:14:13.243Z,19.91
2023-05-10T16:16:42.324Z,19.90
2023-05-10T16:19:11.553Z,19.88
2023-05-10T16:21:40.147Z,19.80
2023-05-10T16:24:09.177Z,19.74
2023-05-10T16:26:41.237Z,19.73
2023-05-10T16:29:11.252Z,19.67
2023-05-10T16:31:39.780Z,19.59
2023-05-10T16:34:08.650Z,19.55
2023-05-10T16:36:37.585Z,19.53
2023-05-10T16:39:10.211Z,19.50
2023-05-10T16:41:38.924Z,19.40
2023-05-10T16:44:07.925Z,19.34
2023-05-10T16:46:36.941Z,19.30
2023-05-10T16:49:07.350Z,19.28
2023-05-10T16:51:37.037Z,19.26
2023-05-10T16:54:05.373Z,19.21
2023-05-10T16:56:34.110Z,19.14
2023-05-10T16:59:02.618Z,19.10
2023-05-10T17:01:31.046Z,19.05
2023-05-10T17:04:00.087Z,19.01
2023-05-10T17:06:28.987Z,18.97
2023-05-10T17:08:58.052Z,18.94
2023-05-10T17:11:26.690Z,18.89
2023-05-10T17:13:55.269Z,18.85
2023-05-10T17:16:27.408Z,18.80
2023-05-10T17:18:55.911Z,18.75
2023-05-10T17:21:24.634Z,18.68
2023-05-10T17:23:53.441Z,18.62
2023-05-10T17:26:22.619Z,18.58
2023-05-10T17:28:54.532Z,18.57
2023-05-10T17:31:23.500Z,18.51
2023-05-10T17:33:52.626Z,18.45
2023-05-10T17:36:21.051Z,18.41
2023-05-10T17:38:49.874Z,18.36
2023-05-10T17:41:20.809Z,18.26
2023-05-10T17:43:49.286Z,18.16
2023-05-10T17:46:18.218Z,18.06
2023-05-10T17:48:46.873Z,17.96
2023-05-10T17:51:15.928Z,17.89
2023-05-10T17:53:44.978Z,17.81
2023-05-10T17:56:13.886Z,17.71
2023-05-10T17:58:42.442Z,17.63
2023-05-10T18:01:11.099Z,17.55
2023-05-10T18:03:39.732Z,17.45
2023-05-10T18:06:08.371Z,17.35
2023-05-10T18:08:37.657Z,17.26
2023-05-10T18:11:06.709Z,17.16
2023-05-10T18:13:35.531Z,17.03
2023-05-10T18:16:06.168Z,16.93
2023-05-10T18:18:35.543Z,16.83
2023-05-10T18:21:04.476Z,16.72
2023-05-10T18:23:32.866Z,16.62
2023-05-10T18:26:02.664Z,16.52
2023-05-10T18:28:31.341Z,16.41
2023-05-10T18:31:00.091Z,16.31
2023-05-10T18:33:29.140Z,16.21
2023-05-10T18:35:58.085Z,16.12
2023-05-10T18:38:27.730Z,16.01
2023-05-10T18:40:58.646Z,15.91
2023-05-10T18:43:27.438Z,15.81
2023-05-10T18:45:57.008Z,15.72
2023-05-10T18:48:26.066Z,15.66
2023-05-10T18:50:55.473Z,15.59
2023-05-10T18:53:25.065Z,15.53
2023-05-10T18:55:58.704Z,15.49
2023-05-10T18:58:28.948Z,15.43
2023-05-10T19:00:59.811Z,15.36
2023-05-10T19:03:30.498Z,15.31
2023-05-10T19:05:59.996Z,15.24
2023-05-10T19:08:29.087Z,15.18
2023-05-10T19:10:58.996Z,15.11
2023-05-10T19:13:30.652Z,15.04
2023-05-10T19:16:12.700Z,14.97
2023-05-10T19:18:44.795Z,14.90
2023-05-10T19:21:16.400Z,14.84
2023-05-10T19:23:46.283Z,14.80
2023-05-10T19:26:16.654Z,14.75
2023-05-10T19:28:45.867Z,14.71
2023-05-10T19:31:16.488Z,14.66
2023-05-10T19:33:47.300Z,14.59
2023-05-10T19:36:17.646Z,14.51
2023-05-10T19:38:46.434Z,14.46
2023-05-10T19:41:17.762Z,14.37
2023-05-10T19:43:48.809Z,14.26
2023-05-10T19:46:20.126Z,14.19
2023-05-10T19:48:51.183Z,14.11
2023-05-10T19:51:21.332Z,14.06
2023-05-10T19:53:51.121Z,14.00
2023-05-10T19:56:19.880Z,13.94
2023-05-10T19:58:48.701Z,13.92
2023-05-10T20:01:17.978Z,13.91
2023-05-10T20:03:47.474Z,13.88
2023-05-10T20:06:16.233Z,13.81
2023-05-10T20:08:45.416Z,13.76
2023-05-10T20:11:14.856Z,13.77
2023-05-10T20:13:45.069Z,13.72
2023-05-10T20:16:14.252Z,13.66
2023-05-10T20:18:43.550Z,13.60
2023-05-10T20:21:12.886Z,13.54
2023-05-10T20:23:41.998Z,13.47
2023-05-10T20:26:11.352Z,13.34
2023-05-10T20:28:41.300Z,13.23
2023-05-10T20:31:11.557Z,13.12
2023-05-10T20:33:40.861Z,13.03
2023-05-10T20:36:10.319Z,12.96
2023-05-10T20:38:39.945Z,12.88
2023-05-10T20:41:08.374Z,12.79
2023-05-10T20:43:36.936Z,12.71
2023-05-10T20:46:06.070Z,12.63
2023-05-10T20:48:35.958Z,12.54
2023-05-10T20:51:04.293Z,12.45
2023-05-10T20:53:33.107Z,12.37
2023-05-10T20:56:01.432Z,12.31
2023-05-10T20:58:29.802Z,12.25
2023-05-10T21:00:58.209Z,12.18
2023-05-10T21:03:26.628Z,12.10
2023-05-10T21:05:54.943Z,12.04
2023-05-10T21:08:23.304Z,11.98
2023-05-10T21:10:51.681Z,11.91
2023-05-10T21:13:20.050Z,11.83
2023-05-10T21:15:48.458Z,11.73
2023-05-10T21:18:16.966Z,11.65
2023-05-10T21:20:45.330Z,11.59
2023-05-10T21:23:13.935Z,11.55
2023-05-10T21:25:42.353Z,11.51
2023-05-10T21:28:11.054Z,11.48
2023-05-10T21:30:39.528Z,11.43
2023-05-10T21:33:07.875Z,11.41
2023-05-10T21:35:39.570Z,11.39
2023-05-10T21:38:08.269Z,11.35
2023-05-10T21:40:38.889Z,11.30
2023-05-10T21:43:07.388Z,11.29
2023-05-10T21:45:36.773Z,11.27
2023-05-10T21:48:05.251Z,11.25
2023-05-10T21:50:34.014Z,11.22
2023-05-10T21:53:02.758Z,11.18
2023-05-10T21:55:31.271Z,11.17
2023-05-10T21:58:00.154Z,11.19
2023-05-10T22:00:28.984Z,11.21
2023-05-10T22:02:57.413Z,11.23
2023-05-10T22:05:26.387Z,11.21
2023-05-10T22:07:54.764Z,11.19
2023-05-10T22:10:23.090Z,11.16
2023-05-10T22:12:52.019Z,11.12
2023-05-10T22:15:20.675Z,11.10
2023-05-10T22:17:48.979Z,11.06
2023-05-10T22:20:17.728Z,11.01
2023-05-10T22:22:46.623Z,10.95
2023-05-10T22:25:15.859Z,10.92
2023-05-10T22:27:44.224Z,10.88
2023-05-10T22:30:12.842Z,10.84
2023-05-10T22:32:41.658Z,10.77
2023-05-10T22:35:10.252Z,10.71
2023-05-10T22:37:38.700Z,10.67
2023-05-10T22:40:08.641Z,10.63
2023-05-10T22:42:37.043Z,10.60
2023-05-10T22:45:06.050Z,10.56
2023-05-10T22:47:34.668Z,10.53
2023-05-10T22:50:03.989Z,10.49
2023-05-10T22:52:32.566Z,10.47
2023-05-10T22:55:01.017Z,10.43
2023-05-10T22:57:29.389Z,10.41
2023-05-10T22:59:57.866Z,10.39
2023-05-10T23:02:26.438Z,10.36
2023-05-10T23:04:54.905Z,10.31
2023-05-10T23:07:24.292Z,10.26
2023-05-10T23:09:52.734Z,10.22
2023-05-10T23:12:21.077Z,10.19
2023-05-10T23:14:49.715Z,10.15
2023-05-10T23:17:18.111Z,10.09
2023-05-10T23:19:46.452Z,10.06
2023-05-10T23:22:14.726Z,10.03
2023-05-10T23:24:43.141Z,10.00
2023-05-10T23:27:11.800Z,9.97
2023-05-10T23:29:40.961Z,9.92
2023-05-10T23:32:09.930Z,9.90
2023-05-10T23:34:38.300Z,9.85
2023-05-10T23:37:06.619Z,9.83
2023-05-10T23:39:35.234Z,9.80
2023-05-10T23:42:03.674Z,9.79
2023-05-10T23:44:32.432Z,9.77
2023-05-10T23:47:00.794Z,9.76
2023-05-10T23:49:29.882Z,9.72
2023-05-10T23:51:58.208Z,9.69
2023-05-10T23:54:26.492Z,9.66
2023-05-10T23:56:54.841Z,9.62
2023-05-10T23:59:23.113Z,9.58
